sensor_id;sensor_type;location;lat;lon;timestamp;temperature;humidity
9425;DHT22;17139;52.140;11.636;2023-11-21T00:00:15;8.30;72.00
9425;DHT22;17139;52.140;11.636;2023-11-21T00:02:44;8.30;72.20
9425;DHT22;17139;52.140;11.636;2023-11-21T00:05:12;8.30;72.40
9425;DHT22;17139;52.140;11.636;2023-11-21T00:07:41;8.30;72.50
9425;DHT22;17139;52.140;11.636;2023-11-21T00:10:09;8.30;72.50
9425;DHT22;17139;52.140;11.636;2023-11-21T00:12:37;8.30;72.50
9425;DHT22;17139;52.140;11.636;2023-11-21T00:15:08;8.20;72.50
9425;DHT22;17139;52.140;11.636;2023-11-21T00:17:36;8.20;72.50
9425;DHT22;17139;52.140;11.636;2023-11-21T00:20:06;8.10;72.50
9425;DHT22;17139;52.140;11.636;2023-11-21T00:22:34;8.10;72.60
9425;DHT22;17139;52.140;11.636;2023-11-21T00:25:01;8.00;72.60
9425;DHT22;17139;52.140;11.636;2023-11-21T00:27:29;8.00;72.70
9425;DHT22;17139;52.140;11.636;2023-11-21T00:29:57;8.00;72.90
9425;DHT22;17139;52.140;11.636;2023-11-21T00:32:24;8.60;71.90
9425;DHT22;17139;52.140;11.636;2023-11-21T00:34:51;8.50;71.40
9425;DHT22;17139;52.140;11.636;2023-11-21T00:37:21;8.40;72.00
9425;DHT22;17139;52.140;11.636;2023-11-21T00:39:49;8.30;72.30
9425;DHT22;17139;52.140;11.636;2023-11-21T00:42:17;8.20;72.50
9425;DHT22;17139;52.140;11.636;2023-11-21T00:44:44;8.20;72.60
9425;DHT22;17139;52.140;11.636;2023-11-21T00:47:11;8.20;72.70
9425;DHT22;17139;52.140;11.636;2023-11-21T00:49:38;8.10;72.70
9425;DHT22;17139;52.140;11.636;2023-11-21T00:52:06;8.10;72.80
9425;DHT22;17139;52.140;11.636;2023-11-21T00:54:35;8.10;73.10
9425;DHT22;17139;52.140;11.636;2023-11-21T00:57:03;8.10;73.20
9425;DHT22;17139;52.140;11.636;2023-11-21T00:59:30;8.10;73.20
9425;DHT22;17139;52.140;11.636;2023-11-21T01:01:57;8.40;73.00
9425;DHT22;17139;52.140;11.636;2023-11-21T01:04:26;8.30;72.30
9425;DHT22;17139;52.140;11.636;2023-11-21T01:06:53;8.30;72.50
9425;DHT22;17139;52.140;11.636;2023-11-21T01:09:20;8.40;72.60
9425;DHT22;17139;52.140;11.636;2023-11-21T01:11:49;8.30;72.20
9425;DHT22;17139;52.140;11.636;2023-11-21T01:14:17;8.20;73.10
9425;DHT22;17139;52.140;11.636;2023-11-21T01:16:45;8.10;72.60
9425;DHT22;17139;52.140;11.636;2023-11-21T01:19:12;8.10;72.90
9425;DHT22;17139;52.140;11.636;2023-11-21T01:21:39;8.00;73.00
9425;DHT22;17139;52.140;11.636;2023-11-21T01:24:08;8.00;73.10
9425;DHT22;17139;52.140;11.636;2023-11-21T01:26:36;8.00;73.20
9425;DHT22;17139;52.140;11.636;2023-11-21T01:29:04;8.00;73.20
9425;DHT22;17139;52.140;11.636;2023-11-21T01:31:32;8.00;73.20
9425;DHT22;17139;52.140;11.636;2023-11-21T01:33:59;8.00;73.20
9425;DHT22;17139;52.140;11.636;2023-11-21T01:36:30;8.00;73.20
9425;DHT22;17139;52.140;11.636;2023-11-21T01:38:58;8.00;73.20
9425;DHT22;17139;52.140;11.636;2023-11-21T01:41:26;8.70;72.30
9425;DHT22;17139;52.140;11.636;2023-11-21T01:43:54;8.40;71.60
9425;DHT22;17139;52.140;11.636;2023-11-21T01:46:23;8.20;72.10
9425;DHT22;17139;52.140;11.636;2023-11-21T01:48:51;8.10;72.60
9425;DHT22;17139;52.140;11.636;2023-11-21T01:51:20;8.00;73.00
9425;DHT22;17139;52.140;11.636;2023-11-21T01:53:48;7.90;73.10
9425;DHT22;17139;52.140;11.636;2023-11-21T01:56:16;7.90;73.10
9425;DHT22;17139;52.140;11.636;2023-11-21T01:58:44;7.90;73.20
9425;DHT22;17139;52.140;11.636;2023-11-21T02:01:12;7.80;73.30
9425;DHT22;17139;52.140;11.636;2023-11-21T02:03:41;7.80;73.30
9425;DHT22;17139;52.140;11.636;2023-11-21T02:06:08;7.80;73.40
9425;DHT22;17139;52.140;11.636;2023-11-21T02:08:36;7.90;73.60
9425;DHT22;17139;52.140;11.636;2023-11-21T02:11:04;7.90;73.50
9425;DHT22;17139;52.140;11.636;2023-11-21T02:13:32;7.90;73.40
9425;DHT22;17139;52.140;11.636;2023-11-21T02:15:59;7.90;73.40
9425;DHT22;17139;52.140;11.636;2023-11-21T02:18:27;8.30;73.20
9425;DHT22;17139;52.140;11.636;2023-11-21T02:20:56;8.20;72.40
9425;DHT22;17139;52.140;11.636;2023-11-21T02:23:25;8.10;72.70
9425;DHT22;17139;52.140;11.636;2023-11-21T02:25:54;8.80;71.80
9425;DHT22;17139;52.140;11.636;2023-11-21T02:28:22;8.50;71.40
9425;DHT22;17139;52.140;11.636;2023-11-21T02:30:51;8.30;72.20
9425;DHT22;17139;52.140;11.636;2023-11-21T02:33:21;8.20;72.80
9425;DHT22;17139;52.140;11.636;2023-11-21T02:35:48;8.10;73.00
9425;DHT22;17139;52.140;11.636;2023-11-21T02:38:17;8.00;73.10
9425;DHT22;17139;52.140;11.636;2023-11-21T02:40:45;8.00;73.20
9425;DHT22;17139;52.140;11.636;2023-11-21T02:43:12;8.00;73.20
9425;DHT22;17139;52.140;11.636;2023-11-21T02:45:40;8.00;73.20
9425;DHT22;17139;52.140;11.636;2023-11-21T02:48:08;7.90;73.20
9425;DHT22;17139;52.140;11.636;2023-11-21T02:50:35;7.90;73.40
9425;DHT22;17139;52.140;11.636;2023-11-21T02:53:03;7.90;73.50
9425;DHT22;17139;52.140;11.636;2023-11-21T02:55:31;7.80;73.40
9425;DHT22;17139;52.140;11.636;2023-11-21T02:58:02;8.60;72.20
9425;DHT22;17139;52.140;11.636;2023-11-21T03:00:31;8.30;71.70
9425;DHT22;17139;52.140;11.636;2023-11-21T03:02:59;8.20;72.50
9425;DHT22;17139;52.140;11.636;2023-11-21T03:05:26;8.10;72.60
9425;DHT22;17139;52.140;11.636;2023-11-21T03:07:54;7.90;72.90
9425;DHT22;17139;52.140;11.636;2023-11-21T03:10:22;7.80;73.20
9425;DHT22;17139;52.140;11.636;2023-11-21T03:12:49;7.80;73.50
9425;DHT22;17139;52.140;11.636;2023-11-21T03:15:18;7.70;73.50
9425;DHT22;17139;52.140;11.636;2023-11-21T03:17:45;7.70;73.60
9425;DHT22;17139;52.140;11.636;2023-11-21T03:20:15;7.70;73.60
9425;DHT22;17139;52.140;11.636;2023-11-21T03:22:42;7.70;73.70
9425;DHT22;17139;52.140;11.636;2023-11-21T03:25:10;7.60;73.40
9425;DHT22;17139;52.140;11.636;2023-11-21T03:27:37;7.60;73.50
9425;DHT22;17139;52.140;11.636;2023-11-21T03:30:09;7.60;73.50
9425;DHT22;17139;52.140;11.636;2023-11-21T03:32:38;7.60;73.50
9425;DHT22;17139;52.140;11.636;2023-11-21T03:35:05;7.60;73.50
9425;DHT22;17139;52.140;11.636;2023-11-21T03:37:32;7.60;73.40
9425;DHT22;17139;52.140;11.636;2023-11-21T03:40:00;7.60;73.40
9425;DHT22;17139;52.140;11.636;2023-11-21T03:42:29;7.80;72.80
9425;DHT22;17139;52.140;11.636;2023-11-21T03:44:56;7.80;72.60
9425;DHT22;17139;52.140;11.636;2023-11-21T03:47:25;7.70;72.90
9425;DHT22;17139;52.140;11.636;2023-11-21T03:49:54;7.60;73.10
9425;DHT22;17139;52.140;11.636;2023-11-21T03:52:21;7.60;73.30
9425;DHT22;17139;52.140;11.636;2023-11-21T03:54:49;7.50;73.30
9425;DHT22;17139;52.140;11.636;2023-11-21T03:57:16;7.50;73.40
9425;DHT22;17139;52.140;11.636;2023-11-21T03:59:43;7.40;73.40
9425;DHT22;17139;52.140;11.636;2023-11-21T04:02:11;7.50;73.60
9425;DHT22;17139;52.140;11.636;2023-11-21T04:04:38;7.40;73.50
9425;DHT22;17139;52.140;11.636;2023-11-21T04:07:06;7.40;73.50
9425;DHT22;17139;52.140;11.636;2023-11-21T04:09:33;7.50;73.60
9425;DHT22;17139;52.140;11.636;2023-11-21T04:12:02;7.40;73.50
9425;DHT22;17139;52.140;11.636;2023-11-21T04:14:29;7.40;73.40
9425;DHT22;17139;52.140;11.636;2023-11-21T04:16:56;7.40;73.40
9425;DHT22;17139;52.140;11.636;2023-11-21T04:19:23;7.30;73.30
9425;DHT22;17139;52.140;11.636;2023-11-21T04:21:51;7.50;72.90
9425;DHT22;17139;52.140;11.636;2023-11-21T04:24:20;7.40;72.60
9425;DHT22;17139;52.140;11.636;2023-11-21T04:26:47;7.40;72.70
9425;DHT22;17139;52.140;11.636;2023-11-21T04:29:14;7.20;72.90
9425;DHT22;17139;52.140;11.636;2023-11-21T04:31:41;7.20;73.00
9425;DHT22;17139;52.140;11.636;2023-11-21T04:34:08;7.10;73.00
9425;DHT22;17139;52.140;11.636;2023-11-21T04:36:36;7.10;73.10
9425;DHT22;17139;52.140;11.636;2023-11-21T04:39:03;7.00;73.10
9425;DHT22;17139;52.140;11.636;2023-11-21T04:41:33;7.00;73.10
9425;DHT22;17139;52.140;11.636;2023-11-21T04:43:59;6.90;73.00
9425;DHT22;17139;52.140;11.636;2023-11-21T04:46:26;6.90;73.10
9425;DHT22;17139;52.140;11.636;2023-11-21T04:48:54;6.80;73.00
9425;DHT22;17139;52.140;11.636;2023-11-21T04:51:21;6.80;73.00
9425;DHT22;17139;52.140;11.636;2023-11-21T04:53:48;6.80;72.70
9425;DHT22;17139;52.140;11.636;2023-11-21T04:56:15;6.90;72.60
9425;DHT22;17139;52.140;11.636;2023-11-21T04:58:44;6.80;72.70
9425;DHT22;17139;52.140;11.636;2023-11-21T05:01:14;7.10;72.30
9425;DHT22;17139;52.140;11.636;2023-11-21T05:03:41;7.00;72.00
9425;DHT22;17139;52.140;11.636;2023-11-21T05:06:10;7.00;72.30
9425;DHT22;17139;52.140;11.636;2023-11-21T05:08:37;6.90;72.50
9425;DHT22;17139;52.140;11.636;2023-11-21T05:11:04;6.80;72.50
9425;DHT22;17139;52.140;11.636;2023-11-21T05:13:34;6.80;72.70
9425;DHT22;17139;52.140;11.636;2023-11-21T05:16:03;6.80;72.80
9425;DHT22;17139;52.140;11.636;2023-11-21T05:18:32;6.70;72.80
9425;DHT22;17139;52.140;11.636;2023-11-21T05:21:00;6.70;72.90
9425;DHT22;17139;52.140;11.636;2023-11-21T05:23:28;6.80;72.90
9425;DHT22;17139;52.140;11.636;2023-11-21T05:25:55;6.70;72.70
9425;DHT22;17139;52.140;11.636;2023-11-21T05:28:23;6.60;72.70
9425;DHT22;17139;52.140;11.636;2023-11-21T05:30:51;7.00;71.50
9425;DHT22;17139;52.140;11.636;2023-11-21T05:33:20;6.80;71.30
9425;DHT22;17139;52.140;11.636;2023-11-21T05:35:47;6.60;71.80
9425;DHT22;17139;52.140;11.636;2023-11-21T05:38:15;6.80;71.80
9425;DHT22;17139;52.140;11.636;2023-11-21T05:40:42;6.70;71.70
9425;DHT22;17139;52.140;11.636;2023-11-21T05:43:09;6.50;72.00
9425;DHT22;17139;52.140;11.636;2023-11-21T05:45:38;6.50;72.40
9425;DHT22;17139;52.140;11.636;2023-11-21T05:48:05;6.40;72.50
9425;DHT22;17139;52.140;11.636;2023-11-21T05:50:34;6.30;73.60
9425;DHT22;17139;52.140;11.636;2023-11-21T05:53:01;6.20;73.70
9425;DHT22;17139;52.140;11.636;2023-11-21T05:55:28;6.20;73.90
9425;DHT22;17139;52.140;11.636;2023-11-21T05:57:56;6.10;73.80
9425;DHT22;17139;52.140;11.636;2023-11-21T06:00:24;6.10;73.80
9425;DHT22;17139;52.140;11.636;2023-11-21T06:02:53;6.60;71.40
9425;DHT22;17139;52.140;11.636;2023-11-21T06:05:22;6.50;71.20
9425;DHT22;17139;52.140;11.636;2023-11-21T06:07:52;6.30;72.70
9425;DHT22;17139;52.140;11.636;2023-11-21T06:10:20;6.20;73.20
9425;DHT22;17139;52.140;11.636;2023-11-21T06:12:49;6.10;73.30
9425;DHT22;17139;52.140;11.636;2023-11-21T06:15:17;6.10;73.60
9425;DHT22;17139;52.140;11.636;2023-11-21T06:17:45;6.00;73.50
9425;DHT22;17139;52.140;11.636;2023-11-21T06:20:15;6.00;73.60
9425;DHT22;17139;52.140;11.636;2023-11-21T06:22:46;6.00;73.70
9425;DHT22;17139;52.140;11.636;2023-11-21T06:25:15;5.90;73.70
9425;DHT22;17139;52.140;11.636;2023-11-21T06:27:44;5.90;73.60
9425;DHT22;17139;52.140;11.636;2023-11-21T06:30:12;5.90;73.70
9425;DHT22;17139;52.140;11.636;2023-11-21T06:32:41;5.90;73.70
9425;DHT22;17139;52.140;11.636;2023-11-21T06:35:11;5.90;73.60
9425;DHT22;17139;52.140;11.636;2023-11-21T06:37:39;5.90;73.60
9425;DHT22;17139;52.140;11.636;2023-11-21T06:40:07;5.90;73.70
9425;DHT22;17139;52.140;11.636;2023-11-21T06:42:37;6.10;73.00
9425;DHT22;17139;52.140;11.636;2023-11-21T06:45:06;6.10;72.70
9425;DHT22;17139;52.140;11.636;2023-11-21T06:47:33;6.10;73.00
9425;DHT22;17139;52.140;11.636;2023-11-21T06:50:00;6.00;73.20
9425;DHT22;17139;52.140;11.636;2023-11-21T06:52:27;5.90;73.20
9425;DHT22;17139;52.140;11.636;2023-11-21T06:54:55;5.90;73.30
9425;DHT22;17139;52.140;11.636;2023-11-21T06:57:23;5.80;73.50
9425;DHT22;17139;52.140;11.636;2023-11-21T06:59:52;5.80;73.40
9425;DHT22;17139;52.140;11.636;2023-11-21T07:02:19;5.80;73.40
9425;DHT22;17139;52.140;11.636;2023-11-21T07:04:46;5.80;73.40
9425;DHT22;17139;52.140;11.636;2023-11-21T07:07:13;5.80;73.40
9425;DHT22;17139;52.140;11.636;2023-11-21T07:09:40;5.80;73.40
9425;DHT22;17139;52.140;11.636;2023-11-21T07:12:08;6.50;70.20
9425;DHT22;17139;52.140;11.636;2023-11-21T07:14:36;6.40;70.30
9425;DHT22;17139;52.140;11.636;2023-11-21T07:17:06;6.30;71.60
9425;DHT22;17139;52.140;11.636;2023-11-21T07:19:33;6.20;71.80
9425;DHT22;17139;52.140;11.636;2023-11-21T07:22:01;6.10;72.40
9425;DHT22;17139;52.140;11.636;2023-11-21T07:24:29;6.10;72.70
9425;DHT22;17139;52.140;11.636;2023-11-21T07:26:57;6.00;72.80
9425;DHT22;17139;52.140;11.636;2023-11-21T07:29:24;6.00;72.80
9425;DHT22;17139;52.140;11.636;2023-11-21T07:31:52;5.90;73.00
9425;DHT22;17139;52.140;11.636;2023-11-21T07:34:21;5.90;73.10
9425;DHT22;17139;52.140;11.636;2023-11-21T07:36:48;5.80;73.10
9425;DHT22;17139;52.140;11.636;2023-11-21T07:39:15;5.80;73.10
9425;DHT22;17139;52.140;11.636;2023-11-21T07:41:43;5.80;73.10
9425;DHT22;17139;52.140;11.636;2023-11-21T07:44:15;5.70;73.00
9425;DHT22;17139;52.140;11.636;2023-11-21T07:46:43;6.10;72.20
9425;DHT22;17139;52.140;11.636;2023-11-21T07:49:10;6.00;71.70
9425;DHT22;17139;52.140;11.636;2023-11-21T07:51:38;5.90;72.20
9425;DHT22;17139;52.140;11.636;2023-11-21T07:54:05;5.80;72.40
9425;DHT22;17139;52.140;11.636;2023-11-21T07:56:32;5.80;72.70
9425;DHT22;17139;52.140;11.636;2023-11-21T07:58:59;5.70;72.80
9425;DHT22;17139;52.140;11.636;2023-11-21T08:01:26;5.70;72.90
9425;DHT22;17139;52.140;11.636;2023-11-21T08:03:54;5.70;73.00
9425;DHT22;17139;52.140;11.636;2023-11-21T08:06:24;5.80;73.00
9425;DHT22;17139;52.140;11.636;2023-11-21T08:08:53;5.80;72.80
9425;DHT22;17139;52.140;11.636;2023-11-21T08:11:20;5.70;72.70
9425;DHT22;17139;52.140;11.636;2023-11-21T08:13:47;5.80;72.80
9425;DHT22;17139;52.140;11.636;2023-11-21T08:16:15;5.70;72.70
9425;DHT22;17139;52.140;11.636;2023-11-21T08:18:42;5.70;72.80
9425;DHT22;17139;52.140;11.636;2023-11-21T08:21:09;5.70;72.90
9425;DHT22;17139;52.140;11.636;2023-11-21T08:23:37;5.80;72.90
9425;DHT22;17139;52.140;11.636;2023-11-21T08:26:06;5.70;72.70
9425;DHT22;17139;52.140;11.636;2023-11-21T08:28:34;5.80;72.70
9425;DHT22;17139;52.140;11.636;2023-11-21T08:31:01;5.90;72.60
9425;DHT22;17139;52.140;11.636;2023-11-21T08:33:30;5.90;72.70
9425;DHT22;17139;52.140;11.636;2023-11-21T08:35:57;5.90;72.60
9425;DHT22;17139;52.140;11.636;2023-11-21T08:38:24;5.80;72.50
9425;DHT22;17139;52.140;11.636;2023-11-21T08:40:51;5.90;72.60
9425;DHT22;17139;52.140;11.636;2023-11-21T08:43:19;5.80;72.40
9425;DHT22;17139;52.140;11.636;2023-11-21T08:45:46;5.80;72.50
9425;DHT22;17139;52.140;11.636;2023-11-21T08:48:13;5.80;72.60
9425;DHT22;17139;52.140;11.636;2023-11-21T08:50:41;5.80;72.60
9425;DHT22;17139;52.140;11.636;2023-11-21T08:53:08;5.80;72.40
9425;DHT22;17139;52.140;11.636;2023-11-21T08:55:36;5.70;72.20
9425;DHT22;17139;52.140;11.636;2023-11-21T08:58:03;5.60;72.20
9425;DHT22;17139;52.140;11.636;2023-11-21T09:00:33;6.00;71.10
9425;DHT22;17139;52.140;11.636;2023-11-21T09:03:01;5.90;70.90
9425;DHT22;17139;52.140;11.636;2023-11-21T09:05:29;5.80;71.40
9425;DHT22;17139;52.140;11.636;2023-11-21T09:07:56;6.20;70.00
9425;DHT22;17139;52.140;11.636;2023-11-21T09:10:23;6.00;70.00
9425;DHT22;17139;52.140;11.636;2023-11-21T09:12:51;5.90;70.80
9425;DHT22;17139;52.140;11.636;2023-11-21T09:15:18;5.80;71.40
9425;DHT22;17139;52.140;11.636;2023-11-21T09:17:47;5.70;71.60
9425;DHT22;17139;52.140;11.636;2023-11-21T09:20:14;5.70;71.80
9425;DHT22;17139;52.140;11.636;2023-11-21T09:22:41;5.70;71.90
9425;DHT22;17139;52.140;11.636;2023-11-21T09:25:10;5.60;71.80
9425;DHT22;17139;52.140;11.636;2023-11-21T09:27:38;5.50;71.70
9425;DHT22;17139;52.140;11.636;2023-11-21T09:30:06;5.60;71.90
9425;DHT22;17139;52.140;11.636;2023-11-21T09:32:36;5.50;71.80
9425;DHT22;17139;52.140;11.636;2023-11-21T09:35:06;5.60;72.00
9425;DHT22;17139;52.140;11.636;2023-11-21T09:37:34;5.60;71.90
9425;DHT22;17139;52.140;11.636;2023-11-21T09:40:03;6.20;70.20
9425;DHT22;17139;52.140;11.636;2023-11-21T09:42:36;6.10;70.20
9425;DHT22;17139;52.140;11.636;2023-11-21T09:45:12;5.90;70.80
9425;DHT22;17139;52.140;11.636;2023-11-21T09:47:43;5.80;71.10
9425;DHT22;17139;52.140;11.636;2023-11-21T09:50:14;5.80;71.70
9425;DHT22;17139;52.140;11.636;2023-11-21T09:52:52;5.70;71.80
9425;DHT22;17139;52.140;11.636;2023-11-21T09:55:21;5.70;71.80
9425;DHT22;17139;52.140;11.636;2023-11-21T09:57:49;5.70;71.90
9425;DHT22;17139;52.140;11.636;2023-11-21T10:00:16;5.70;71.90
9425;DHT22;17139;52.140;11.636;2023-11-21T10:02:46;5.70;71.90
9425;DHT22;17139;52.140;11.636;2023-11-21T10:05:17;5.80;71.90
9425;DHT22;17139;52.140;11.636;2023-11-21T10:07:49;5.80;71.70
9425;DHT22;17139;52.140;11.636;2023-11-21T10:10:18;5.80;71.80
9425;DHT22;17139;52.140;11.636;2023-11-21T10:12:49;5.80;71.70
9425;DHT22;17139;52.140;11.636;2023-11-21T10:15:21;5.80;71.70
9425;DHT22;17139;52.140;11.636;2023-11-21T10:17:49;6.00;71.00
9425;DHT22;17139;52.140;11.636;2023-11-21T10:20:20;6.00;71.00
9425;DHT22;17139;52.140;11.636;2023-11-21T10:22:47;6.00;71.20
9425;DHT22;17139;52.140;11.636;2023-11-21T10:25:14;6.40;69.40
9425;DHT22;17139;52.140;11.636;2023-11-21T10:27:42;6.30;70.40
9425;DHT22;17139;52.140;11.636;2023-11-21T10:30:10;6.20;70.90
9425;DHT22;17139;52.140;11.636;2023-11-21T10:32:38;6.20;71.00
9425;DHT22;17139;52.140;11.636;2023-11-21T10:35:07;6.20;71.00
9425;DHT22;17139;52.140;11.636;2023-11-21T10:37:37;6.10;71.10
9425;DHT22;17139;52.140;11.636;2023-11-21T10:40:06;6.00;71.30
9425;DHT22;17139;52.140;11.636;2023-11-21T10:42:34;6.00;71.40
9425;DHT22;17139;52.140;11.636;2023-11-21T10:45:04;6.00;71.30
9425;DHT22;17139;52.140;11.636;2023-11-21T10:47:35;5.90;71.30
9425;DHT22;17139;52.140;11.636;2023-11-21T10:50:04;5.90;71.40
9425;DHT22;17139;52.140;11.636;2023-11-21T10:52:32;5.90;71.40
9425;DHT22;17139;52.140;11.636;2023-11-21T10:55:16;5.80;71.30
9425;DHT22;17139;52.140;11.636;2023-11-21T10:57:45;5.90;71.30
9425;DHT22;17139;52.140;11.636;2023-11-21T11:00:15;5.80;71.40
9425;DHT22;17139;52.140;11.636;2023-11-21T11:02:46;5.80;71.60
9425;DHT22;17139;52.140;11.636;2023-11-21T11:05:15;6.00;70.80
9425;DHT22;17139;52.140;11.636;2023-11-21T11:07:43;6.00;70.70
9425;DHT22;17139;52.140;11.636;2023-11-21T11:10:14;5.90;71.10
9425;DHT22;17139;52.140;11.636;2023-11-21T11:12:41;5.90;71.30
9425;DHT22;17139;52.140;11.636;2023-11-21T11:15:08;5.90;71.50
9425;DHT22;17139;52.140;11.636;2023-11-21T11:17:37;5.90;71.40
9425;DHT22;17139;52.140;11.636;2023-11-21T11:20:07;5.90;71.50
9425;DHT22;17139;52.140;11.636;2023-11-21T11:22:37;6.00;71.50
9425;DHT22;17139;52.140;11.636;2023-11-21T11:28:02;6.00;71.40
9425;DHT22;17139;52.140;11.636;2023-11-21T11:30:41;6.00;71.50
9425;DHT22;17139;52.140;11.636;2023-11-21T11:33:20;6.00;71.60
9425;DHT22;17139;52.140;11.636;2023-11-21T11:36:06;5.90;71.70
9425;DHT22;17139;52.140;11.636;2023-11-21T11:38:34;6.70;68.20
9425;DHT22;17139;52.140;11.636;2023-11-21T11:41:04;6.50;68.40
9425;DHT22;17139;52.140;11.636;2023-11-21T11:43:32;6.20;70.10
9425;DHT22;17139;52.140;11.636;2023-11-21T11:46:10;6.00;70.80
9425;DHT22;17139;52.140;11.636;2023-11-21T11:48:39;5.90;71.30
9425;DHT22;17139;52.140;11.636;2023-11-21T11:51:09;5.90;71.50
9425;DHT22;17139;52.140;11.636;2023-11-21T11:53:41;5.90;71.50
9425;DHT22;17139;52.140;11.636;2023-11-21T11:56:27;5.80;71.50
9425;DHT22;17139;52.140;11.636;2023-11-21T11:58:57;5.80;71.50
9425;DHT22;17139;52.140;11.636;2023-11-21T12:01:25;5.80;71.60
9425;DHT22;17139;52.140;11.636;2023-11-21T12:04:23;5.60;71.40
9425;DHT22;17139;52.140;11.636;2023-11-21T12:06:57;5.60;71.40
9425;DHT22;17139;52.140;11.636;2023-11-21T12:09:28;5.50;71.50
9425;DHT22;17139;52.140;11.636;2023-11-21T12:11:58;5.50;71.70
9425;DHT22;17139;52.140;11.636;2023-11-21T12:14:25;5.50;71.60
9425;DHT22;17139;52.140;11.636;2023-11-21T12:16:53;5.50;71.70
9425;DHT22;17139;52.140;11.636;2023-11-21T12:19:20;5.50;71.50
9425;DHT22;17139;52.140;11.636;2023-11-21T12:21:49;5.40;71.30
9425;DHT22;17139;52.140;11.636;2023-11-21T12:24:16;5.80;70.50
9425;DHT22;17139;52.140;11.636;2023-11-21T12:26:43;5.70;70.20
9425;DHT22;17139;52.140;11.636;2023-11-21T12:29:12;5.60;70.60
9425;DHT22;17139;52.140;11.636;2023-11-21T12:31:39;5.50;70.80
9425;DHT22;17139;52.140;11.636;2023-11-21T12:34:07;5.40;70.90
9425;DHT22;17139;52.140;11.636;2023-11-21T12:36:37;5.40;71.20
9425;DHT22;17139;52.140;11.636;2023-11-21T12:39:04;5.40;71.30
9425;DHT22;17139;52.140;11.636;2023-11-21T12:41:34;5.40;71.30
9425;DHT22;17139;52.140;11.636;2023-11-21T12:44:01;5.40;71.30
9425;DHT22;17139;52.140;11.636;2023-11-21T12:46:30;5.40;71.30
9425;DHT22;17139;52.140;11.636;2023-11-21T12:49:01;5.50;71.20
9425;DHT22;17139;52.140;11.636;2023-11-21T12:51:28;5.40;71.20
9425;DHT22;17139;52.140;11.636;2023-11-21T12:53:55;5.40;71.20
9425;DHT22;17139;52.140;11.636;2023-11-21T12:56:24;5.30;71.20
9425;DHT22;17139;52.140;11.636;2023-11-21T12:58:54;5.30;71.20
9425;DHT22;17139;52.140;11.636;2023-11-21T13:01:25;5.20;71.10
9425;DHT22;17139;52.140;11.636;2023-11-21T13:03:57;5.20;71.20
9425;DHT22;17139;52.140;11.636;2023-11-21T13:06:25;5.10;71.20
9425;DHT22;17139;52.140;11.636;2023-11-21T13:08:52;5.10;71.20
9425;DHT22;17139;52.140;11.636;2023-11-21T13:11:22;5.10;71.30
9425;DHT22;17139;52.140;11.636;2023-11-21T13:13:52;5.20;71.10
9425;DHT22;17139;52.140;11.636;2023-11-21T13:16:20;5.20;70.90
9425;DHT22;17139;52.140;11.636;2023-11-21T13:18:47;5.10;70.70
9425;DHT22;17139;52.140;11.636;2023-11-21T13:21:16;5.00;70.60
9425;DHT22;17139;52.140;11.636;2023-11-21T13:23:44;5.00;70.70
9425;DHT22;17139;52.140;11.636;2023-11-21T13:26:14;5.40;69.70
9425;DHT22;17139;52.140;11.636;2023-11-21T13:28:41;5.30;69.60
9425;DHT22;17139;52.140;11.636;2023-11-21T13:31:11;5.70;68.90
9425;DHT22;17139;52.140;11.636;2023-11-21T13:33:58;5.80;68.40
9425;DHT22;17139;52.140;11.636;2023-11-21T13:36:32;5.80;68.10
9425;DHT22;17139;52.140;11.636;2023-11-21T13:39:01;5.50;69.50
9425;DHT22;17139;52.140;11.636;2023-11-21T13:41:33;5.80;68.00
9425;DHT22;17139;52.140;11.636;2023-11-21T13:44:00;5.50;68.60
9425;DHT22;17139;52.140;11.636;2023-11-21T13:46:40;5.20;69.40
9425;DHT22;17139;52.140;11.636;2023-11-21T13:49:07;5.00;70.10
9425;DHT22;17139;52.140;11.636;2023-11-21T13:51:37;4.80;70.40
9425;DHT22;17139;52.140;11.636;2023-11-21T13:54:07;4.80;70.90
9425;DHT22;17139;52.140;11.636;2023-11-21T13:56:35;4.70;71.10
9425;DHT22;17139;52.140;11.636;2023-11-21T13:59:02;4.70;71.10
9425;DHT22;17139;52.140;11.636;2023-11-21T14:01:39;4.60;71.00
9425;DHT22;17139;52.140;11.636;2023-11-21T14:04:20;4.60;71.00
9425;DHT22;17139;52.140;11.636;2023-11-21T14:07:02;4.60;71.00
9425;DHT22;17139;52.140;11.636;2023-11-21T14:09:46;4.60;71.00
9425;DHT22;17139;52.140;11.636;2023-11-21T14:12:15;4.90;70.30
9425;DHT22;17139;52.140;11.636;2023-11-21T14:14:42;4.90;69.90
9425;DHT22;17139;52.140;11.636;2023-11-21T14:17:11;4.80;70.20
9425;DHT22;17139;52.140;11.636;2023-11-21T14:19:38;5.50;68.70
9425;DHT22;17139;52.140;11.636;2023-11-21T14:22:10;5.20;68.70
9425;DHT22;17139;52.140;11.636;2023-11-21T14:24:37;5.10;69.50
9425;DHT22;17139;52.140;11.636;2023-11-21T14:27:09;5.00;70.00
9425;DHT22;17139;52.140;11.636;2023-11-21T14:29:36;5.00;70.30
9425;DHT22;17139;52.140;11.636;2023-11-21T14:32:05;4.90;70.30
9425;DHT22;17139;52.140;11.636;2023-11-21T14:34:33;4.90;70.40
9425;DHT22;17139;52.140;11.636;2023-11-21T14:37:00;4.80;70.40
9425;DHT22;17139;52.140;11.636;2023-11-21T14:39:30;4.80;70.60
9425;DHT22;17139;52.140;11.636;2023-11-21T14:42:03;4.80;70.70
9425;DHT22;17139;52.140;11.636;2023-11-21T14:44:33;4.70;70.70
9425;DHT22;17139;52.140;11.636;2023-11-21T14:47:04;4.70;70.70
9425;DHT22;17139;52.140;11.636;2023-11-21T14:49:40;4.70;70.60
9425;DHT22;17139;52.140;11.636;2023-11-21T14:52:18;5.40;68.70
9425;DHT22;17139;52.140;11.636;2023-11-21T14:54:59;5.20;68.70
9425;DHT22;17139;52.140;11.636;2023-11-21T14:57:40;5.10;69.20
9425;DHT22;17139;52.140;11.636;2023-11-21T15:00:12;5.00;69.50
9425;DHT22;17139;52.140;11.636;2023-11-21T15:02:57;4.90;70.00
9425;DHT22;17139;52.140;11.636;2023-11-21T15:05:24;4.80;70.30
9425;DHT22;17139;52.140;11.636;2023-11-21T15:07:51;4.80;70.40
9425;DHT22;17139;52.140;11.636;2023-11-21T15:10:23;4.80;70.50
9425;DHT22;17139;52.140;11.636;2023-11-21T15:13:03;4.80;70.50
9425;DHT22;17139;52.140;11.636;2023-11-21T15:15:30;4.80;70.60
9425;DHT22;17139;52.140;11.636;2023-11-21T15:18:00;4.70;70.60
9425;DHT22;17139;52.140;11.636;2023-11-21T15:20:27;4.60;70.60
9425;DHT22;17139;52.140;11.636;2023-11-21T15:22:54;4.60;70.60
9425;DHT22;17139;52.140;11.636;2023-11-21T15:25:22;4.60;70.70
9425;DHT22;17139;52.140;11.636;2023-11-21T15:27:49;4.50;70.70
9425;DHT22;17139;52.140;11.636;2023-11-21T15:30:16;4.60;70.30
9425;DHT22;17139;52.140;11.636;2023-11-21T15:32:47;4.60;70.00
9425;DHT22;17139;52.140;11.636;2023-11-21T15:35:14;4.50;70.20
9425;DHT22;17139;52.140;11.636;2023-11-21T15:37:41;4.80;69.50
9425;DHT22;17139;52.140;11.636;2023-11-21T15:40:09;4.70;69.20
9425;DHT22;17139;52.140;11.636;2023-11-21T15:42:38;4.50;69.60
9425;DHT22;17139;52.140;11.636;2023-11-21T15:45:06;4.50;70.00
9425;DHT22;17139;52.140;11.636;2023-11-21T15:47:33;4.40;70.20
9425;DHT22;17139;52.140;11.636;2023-11-21T15:50:01;4.30;70.20
9425;DHT22;17139;52.140;11.636;2023-11-21T15:52:29;4.30;70.30
9425;DHT22;17139;52.140;11.636;2023-11-21T15:54:56;4.20;70.30
9425;DHT22;17139;52.140;11.636;2023-11-21T15:57:23;4.10;70.30